Time;durP1;ratioP1;P1;durP2;ratioP2;P2;SDS_P1;SDS_P2;PMS_P1;PMS_P2;Temp;Humidity;BMP_temperature;BMP_pressure;BME280_temperature;BME280_humidity;BME280_pressure;Samples;Min_cycle;Max_cycle;Signal;HPM_P1;HPM_P2
2023/01/31 00:01:40;;;;;;;28.80;11.77;;;;;;;4.72;nan;102508.09;4722364;30;20465;-88
2023/01/31 00:04:11;;;;;;;40.47;14.47;;;;;;;4.74;nan;102522.41;4722146;30;20465;-88
2023/01/31 00:06:41;;;;;;;32.20;11.70;;;;;;;4.64;nan;102505.06;4751641;30;21002;-88
2023/01/31 00:09:10;;;;;;;33.50;15.70;;;;;;;4.65;nan;102516.78;4759899;29;20520;-89
2023/01/31 00:11:38;;;;;;;38.83;15.27;;;;;;;4.60;nan;102509.00;4789765;29;20965;-89
2023/01/31 00:14:09;;;;;;;47.27;18.00;;;;;;;4.59;nan;102518.09;4775882;29;20517;-88
2023/01/31 00:16:36;;;;;;;43.70;16.17;;;;;;;4.51;nan;102504.25;4790145;29;20457;-88
2023/01/31 00:19:05;;;;;;;33.00;11.17;;;;;;;4.55;nan;102508.47;4790154;29;20454;-88
2023/01/31 00:21:34;;;;;;;31.53;11.80;;;;;;;4.60;nan;102509.00;4791038;29;20957;-88
2023/01/31 00:24:04;;;;;;;24.03;9.93;;;;;;;4.62;nan;102511.59;4775660;29;20473;-88
2023/01/31 00:26:33;;;;;;;27.53;10.17;;;;;;;4.61;nan;102516.16;4776242;29;20866;-87
2023/01/31 00:29:07;;;;;;;81.77;29.40;;;;;;;4.58;nan;102510.97;4775382;29;20485;-88
2023/01/31 00:31:37;;;;;;;70.47;24.77;;;;;;;4.55;nan;102511.19;4789956;29;20465;-88
2023/01/31 00:34:07;;;;;;;74.87;28.80;;;;;;;4.55;nan;102516.59;4820126;29;20482;-88
2023/01/31 00:36:36;;;;;;;53.07;23.70;;;;;;;4.46;nan;102512.69;4790116;29;20450;-88
2023/01/31 00:39:06;;;;;;;69.37;28.10;;;;;;;4.51;nan;102520.50;4790005;29;20449;-88
2023/01/31 00:41:34;;;;;;;34.43;12.83;;;;;;;4.44;nan;102502.94;4775706;29;20462;-88
2023/01/31 00:44:04;;;;;;;21.97;9.57;;;;;;;4.48;nan;102504.47;4790475;29;20485;-88
2023/01/31 00:46:33;;;;;;;27.03;9.30;;;;;;;4.47;nan;102511.72;4804923;29;20511;-89
2023/01/31 00:49:01;;;;;;;18.70;8.30;;;;;;;4.47;nan;102510.84;4805093;29;20942;-88
2023/01/31 00:51:30;;;;;;;17.23;6.73;;;;;;;4.53;nan;102512.25;4805255;29;20462;-88
2023/01/31 00:53:57;;;;;;;67.70;26.00;;;;;;;4.55;nan;102505.75;4790285;29;20514;-88
2023/01/31 00:56:25;;;;;;;51.23;20.43;;;;;;;4.55;nan;102511.19;4775325;29;20450;-87
2023/01/31 00:58:54;;;;;;;23.20;9.47;;;;;;;4.53;nan;102513.13;4786925;29;20455;-88
2023/01/31 01:01:27;;;;;;;16.70;7.43;;;;;;;4.43;nan;102506.63;4804905;29;20462;-88
2023/01/31 01:03:55;;;;;;;14.33;6.40;;;;;;;4.46;nan;102511.81;4790405;29;20458;-89
2023/01/31 01:06:23;;;;;;;12.67;6.07;;;;;;;4.45;nan;102504.69;4776033;29;20466;-88
2023/01/31 01:08:51;;;;;;;20.30;8.13;;;;;;;4.41;nan;102503.19;4775145;29;20466;-89
2023/01/31 01:11:33;;;;;;;14.63;7.17;;;;;;;4.41;nan;102511.31;4758213;30;20443;-87
2023/01/31 01:14:02;;;;;;;14.80;7.20;;;;;;;4.25;nan;102480.88;4783644;29;20973;-88
2023/01/31 01:16:36;;;;;;;15.00;6.30;;;;;;;4.32;nan;102503.84;4785248;30;20467;-89
2023/01/31 01:19:06;;;;;;;13.30;6.60;;;;;;;4.34;nan;102501.91;4789829;29;20465;-88
2023/01/31 01:21:39;;;;;;;14.70;6.40;;;;;;;4.33;nan;102500.16;4790141;29;20511;-88
2023/01/31 01:24:12;;;;;;;13.57;5.67;;;;;;;4.34;nan;102496.47;4773002;29;20459;-88
2023/01/31 01:26:40;;;;;;;16.73;5.80;;;;;;;4.36;nan;102505.34;4772386;30;20491;-88
2023/01/31 01:29:17;;;;;;;10.43;5.40;;;;;;;4.36;nan;102494.53;4799122;29;20466;-89
2023/01/31 01:31:45;;;;;;;13.63;5.83;;;;;;;4.31;nan;102484.03;4805350;29;20458;-87
2023/01/31 01:34:14;;;;;;;15.30;6.10;;;;;;;4.31;nan;102494.00;4775456;29;20825;-87
2023/01/31 01:36:43;;;;;;;18.57;8.10;;;;;;;4.29;nan;102493.22;4775871;29;20465;-89
2023/01/31 01:39:14;;;;;;;16.07;6.70;;;;;;;4.20;nan;102477.69;4776460;29;20463;-87
2023/01/31 01:41:42;;;;;;;10.80;5.60;;;;;;;4.20;nan;102483.09;4789972;29;20478;-87
2023/01/31 01:44:49;;;;;;;11.87;5.10;;;;;;;4.27;nan;102500.59;4775192;29;20466;-87
2023/01/31 01:47:45;;;;;;;11.93;6.10;;;;;;;4.23;nan;102493.69;4803936;29;20473;-87
2023/01/31 01:50:41;;;;;;;12.97;5.43;;;;;;;4.18;nan;102499.44;4822101;29;20617;-87
2023/01/31 01:53:20;;;;;;;10.50;4.63;;;;;;;4.15;nan;102503.22;4804990;29;20465;-86
2023/01/31 01:55:55;;;;;;;8.00;4.03;;;;;;;4.04;nan;102496.84;4792139;29;20489;-86
2023/01/31 01:58:27;;;;;;;6.80;3.53;;;;;;;3.95;nan;102495.63;4778476;29;20458;-87
2023/01/31 02:00:57;;;;;;;4.30;2.60;;;;;;;3.90;nan;102495.09;4778956;29;20809;-87
2023/01/31 02:03:26;;;;;;;6.23;3.20;;;;;;;3.88;nan;102485.34;4778161;29;20466;-86
2023/01/31 02:05:59;;;;;;;7.03;3.40;;;;;;;3.91;nan;102496.81;4778469;29;21088;-87
2023/01/31 02:08:29;;;;;;;7.70;3.30;;;;;;;3.92;nan;102490.44;4775161;30;20466;-87
2023/01/31 02:11:20;;;;;;;6.13;3.50;;;;;;;3.96;nan;102496.50;4792287;29;21021;-88
2023/01/31 02:13:50;;;;;;;10.80;4.50;;;;;;;3.92;nan;102498.56;4808739;29;20454;-86
2023/01/31 02:16:21;;;;;;;6.80;2.90;;;;;;;3.93;nan;102502.13;4792674;29;20554;-87
2023/01/31 02:18:52;;;;;;;5.10;2.80;;;;;;;3.91;nan;102488.72;4792742;29;20481;-87
2023/01/31 02:21:23;;;;;;;4.83;2.87;;;;;;;3.92;nan;102489.56;4792322;29;20466;-87
2023/01/31 02:24:07;;;;;;;3.17;1.90;;;;;;;3.91;nan;102488.72;4807256;29;20454;-87
2023/01/31 02:26:53;;;;;;;4.53;2.30;;;;;;;3.91;nan;102491.41;4822153;29;20470;-87
2023/01/31 02:29:45;;;;;;;5.50;2.30;;;;;;;3.91;nan;102488.72;4807215;29;20454;-87
2023/01/31 02:32:15;;;;;;;9.07;2.50;;;;;;;3.90;nan;102478.84;4807678;29;20458;-87
2023/01/31 02:34:52;;;;;;;3.70;2.50;;;;;;;3.82;nan;102478.56;4806836;29;20542;-87
2023/01/31 02:37:43;;;;;;;6.50;2.33;;;;;;;3.80;nan;102475.94;4808518;29;20510;-87
2023/01/31 02:40:34;;;;;;;3.93;2.50;;;;;;;3.79;nan;102470.66;4786855;29;20470;-87
2023/01/31 02:43:23;;;;;;;4.80;1.87;;;;;;;3.76;nan;102470.88;4807147;29;20466;-87
2023/01/31 02:46:01;;;;;;;4.00;2.10;;;;;;;3.79;nan;102467.94;4806422;29;20454;-88
2023/01/31 02:48:32;;;;;;;4.83;2.70;;;;;;;3.90;nan;102469.88;4807018;29;20457;-87
2023/01/31 02:51:14;;;;;;;5.97;2.33;;;;;;;4.00;nan;102466.44;4806835;29;20461;-87
2023/01/31 02:53:55;;;;;;;3.30;2.03;;;;;;;4.12;nan;102460.13;4792735;29;20474;-87
2023/01/31 02:56:33;;;;;;;3.60;2.13;;;;;;;4.16;nan;102461.66;4792019;29;20512;-87
2023/01/31 02:59:25;;;;;;;3.57;1.90;;;;;;;4.23;nan;102464.78;4791921;29;20450;-87
2023/01/31 03:02:01;;;;;;;3.30;2.20;;;;;;;4.10;nan;102442.28;4806438;29;20459;-87
2023/01/31 03:04:35;;;;;;;4.27;2.43;;;;;;;4.15;nan;102442.81;4792059;29;20457;-87
2023/01/31 03:07:12;;;;;;;5.23;2.40;;;;;;;4.21;nan;102455.06;4807168;29;20454;-87
2023/01/31 03:10:02;;;;;;;3.50;1.70;;;;;;;4.24;nan;102457.50;4779406;29;20969;-87
2023/01/31 03:12:42;;;;;;;3.50;1.87;;;;;;;4.24;nan;102458.38;4822266;29;20527;-87
2023/01/31 03:15:18;;;;;;;5.20;1.80;;;;;;;4.25;nan;102461.94;4807877;29;20492;-86
2023/01/31 03:18:07;;;;;;;3.73;2.23;;;;;;;4.18;nan;102458.84;4789737;29;20559;-87
2023/01/31 03:20:43;;;;;;;8.40;2.30;;;;;;;4.18;nan;102458.84;4787884;29;20843;-86
2023/01/31 03:23:19;;;;;;;4.50;2.10;;;;;;;4.18;nan;102456.13;4807271;29;20462;-87
2023/01/31 03:25:46;;;;;;;4.63;2.47;;;;;;;4.18;nan;102456.13;4791407;29;20458;-87
2023/01/31 03:28:18;;;;;;;3.70;2.50;;;;;;;4.21;nan;102457.75;4790736;29;20530;-87
2023/01/31 03:30:55;;;;;;;4.60;2.50;;;;;;;4.23;nan;102461.22;4805999;29;20458;-87
2023/01/31 03:33:44;;;;;;;4.60;2.37;;;;;;;4.25;nan;102459.25;4821396;29;20964;-87
2023/01/31 03:36:49;;;;;;;4.63;1.77;;;;;;;4.19;nan;102457.88;4793512;29;20494;-86
2023/01/31 03:39:32;;;;;;;4.80;1.90;;;;;;;4.11;nan;102455.69;4807318;29;20462;-86
2023/01/31 03:42:01;;;;;;;3.27;2.10;;;;;;;4.02;nan;102432.03;4806267;29;20470;-86
2023/01/31 03:44:58;;;;;;;3.20;2.10;;;;;;;4.12;nan;102441.19;4806014;29;20471;-87
2023/01/31 03:47:47;;;;;;;7.00;1.83;;;;;;;4.21;nan;102434.28;4805948;29;20466;-87
2023/01/31 03:50:37;;;;;;;5.40;1.93;;;;;;;4.32;nan;102436.19;4791270;29;20463;-87
2023/01/31 03:53:28;;;;;;;4.07;2.00;;;;;;;4.36;nan;102435.00;4791666;29;20826;-87
2023/01/31 03:56:30;;;;;;;3.10;1.93;;;;;;;4.36;nan;102435.84;4800286;29;20921;-87
2023/01/31 03:59:02;;;;;;;3.10;1.60;;;;;;;4.23;nan;102434.16;4791002;29;20465;-87
2023/01/31 04:01:31;;;;;;;4.00;2.00;;;;;;;4.20;nan;102431.69;4791749;29;20930;-86
2023/01/31 04:04:02;;;;;;;3.60;2.17;;;;;;;4.14;nan;102431.13;4814793;29;20481;-86
2023/01/31 04:06:30;;;;;;;5.50;2.33;;;;;;;4.18;nan;102433.63;4815457;29;20496;-86
2023/01/31 04:08:59;;;;;;;6.70;2.10;;;;;;;4.19;nan;102435.34;4813897;29;20471;-86
2023/01/31 04:11:28;;;;;;;3.37;2.00;;;;;;;4.16;nan;102434.59;4790622;29;20450;-87
2023/01/31 04:13:58;;;;;;;6.13;2.40;;;;;;;4.16;nan;102434.59;4775620;29;20491;-87
2023/01/31 04:16:28;;;;;;;5.33;2.27;;;;;;;4.17;nan;102440.88;4790780;29;20493;-87
2023/01/31 04:18:58;;;;;;;3.90;1.70;;;;;;;4.06;nan;102422.69;4775892;29;20482;-87
2023/01/31 04:21:33;;;;;;;4.33;2.10;;;;;;;4.09;nan;102433.28;4790543;29;20458;-88
2023/01/31 04:24:01;;;;;;;3.60;1.60;;;;;;;4.12;nan;102440.34;4790598;29;20453;-87
2023/01/31 04:26:29;;;;;;;6.57;2.60;;;;;;;4.11;nan;102435.91;4790720;29;20458;-87
2023/01/31 04:28:56;;;;;;;3.20;1.57;;;;;;;4.08;nan;102436.97;4775674;29;20462;-87
2023/01/31 04:31:24;;;;;;;4.67;2.00;;;;;;;4.10;nan;102445.84;4775887;29;20958;-87
2023/01/31 04:33:52;;;;;;;4.73;1.73;;;;;;;4.09;nan;102441.41;4775899;29;20458;-87
2023/01/31 04:36:20;;;;;;;3.83;1.90;;;;;;;4.09;nan;102446.81;4790298;29;21029;-88
2023/01/31 04:38:48;;;;;;;9.20;2.30;;;;;;;4.13;nan;102448.34;4775824;29;20463;-88
2023/01/31 04:41:17;;;;;;;4.70;1.97;;;;;;;4.08;nan;102444.22;4772608;29;20673;-87
2023/01/31 04:43:46;;;;;;;3.77;1.63;;;;;;;4.12;nan;102456.56;4801335;29;20454;-88
2023/01/31 04:46:15;;;;;;;5.83;2.30;;;;;;;4.05;nan;102445.31;4790421;29;20525;-87
2023/01/31 04:48:43;;;;;;;4.63;2.03;;;;;;;4.03;nan;102450.00;4790210;29;20483;-87
2023/01/31 04:51:10;;;;;;;5.43;1.83;;;;;;;4.02;nan;102453.66;4775124;29;20983;-86
2023/01/31 04:53:38;;;;;;;8.23;3.47;;;;;;;3.94;nan;102453.34;4790361;29;20464;-87
2023/01/31 04:56:11;;;;;;;8.10;2.40;;;;;;;3.82;nan;102446.09;4786853;29;20497;-87
2023/01/31 04:58:40;;;;;;;4.00;2.13;;;;;;;3.77;nan;102448.25;4804882;29;20461;-86
2023/01/31 05:01:10;;;;;;;3.00;1.53;;;;;;;3.76;nan;102446.53;4790407;29;20462;-87
2023/01/31 05:03:39;;;;;;;4.00;2.00;;;;;;;3.77;nan;102453.66;4775623;29;20466;-86
2023/01/31 05:06:08;;;;;;;5.23;1.93;;;;;;;3.71;nan;102444.13;4790621;29;20503;-87
2023/01/31 05:08:38;;;;;;;5.47;2.03;;;;;;;3.76;nan;102452.81;4790146;29;20534;-87
2023/01/31 05:11:06;;;;;;;2.70;1.77;;;;;;;3.72;nan;102447.72;4805359;29;20446;-87
2023/01/31 05:13:37;;;;;;;2.70;1.63;;;;;;;3.77;nan;102449.13;4789508;29;20454;-87
2023/01/31 05:16:09;;;;;;;3.07;1.80;;;;;;;3.77;nan;102440.16;4776256;29;20524;-87
2023/01/31 05:18:39;;;;;;;2.43;1.50;;;;;;;3.81;nan;102449.78;4785574;29;20497;-87
2023/01/31 05:21:11;;;;;;;2.73;1.40;;;;;;;3.79;nan;102435.50;4794797;29;20458;-87
2023/01/31 05:23:39;;;;;;;2.97;1.70;;;;;;;3.84;nan;102449.56;4819917;29;20954;-87
2023/01/31 05:26:07;;;;;;;5.10;1.80;;;;;;;3.83;nan;102437.03;4778778;29;20458;-87
2023/01/31 05:28:35;;;;;;;4.73;1.93;;;;;;;3.86;nan;102447.59;4793751;29;20458;-87
2023/01/31 05:31:06;;;;;;;4.77;2.40;;;;;;;3.81;nan;102445.25;4793097;29;20462;-87
2023/01/31 05:33:36;;;;;;;5.07;2.43;;;;;;;3.75;nan;102444.78;4805799;29;20477;-89
2023/01/31 05:36:06;;;;;;;4.70;1.80;;;;;;;3.73;nan;102446.75;4807671;29;20886;-87
2023/01/31 05:38:33;;;;;;;3.30;1.77;;;;;;;3.70;nan;102457.75;4790789;29;20470;-88
2023/01/31 05:41:01;;;;;;;2.53;1.73;;;;;;;3.65;nan;102454.53;4779014;29;20946;-87
2023/01/31 05:43:30;;;;;;;4.23;2.30;;;;;;;3.63;nan;102451.06;4778427;29;20556;-87
2023/01/31 05:46:02;;;;;;;5.83;3.20;;;;;;;3.56;nan;102460.56;4757106;30;20463;-87
2023/01/31 05:48:30;;;;;;;5.90;2.27;;;;;;;3.52;nan;102451.81;4755664;30;20468;-87
2023/01/31 05:50:58;;;;;;;7.97;2.70;;;;;;;3.52;nan;102465.31;4771186;30;20460;-87
2023/01/31 05:53:29;;;;;;;9.40;2.90;;;;;;;3.47;nan;102456.66;4727388;30;20464;-87
2023/01/31 05:55:58;;;;;;;7.27;3.57;;;;;;;3.44;nan;102455.06;4756352;30;20488;-87
2023/01/31 05:58:27;;;;;;;4.47;2.60;;;;;;;3.36;nan;102453.84;4756264;30;20468;-88
2023/01/31 06:01:02;;;;;;;8.70;3.20;;;;;;;3.32;nan;102463.97;4770951;30;20463;-87
2023/01/31 06:03:30;;;;;;;29.47;11.23;;;;;;;3.27;nan;102460.72;4765092;29;20458;-87
2023/01/31 06:06:04;;;;;;;21.73;11.57;;;;;;;3.28;nan;102462.44;4778476;29;20849;-87
2023/01/31 06:08:31;;;;;;;10.90;4.63;;;;;;;3.25;nan;102467.22;4808619;29;20966;-87
2023/01/31 06:11:04;;;;;;;3.83;2.20;;;;;;;3.26;nan;102475.22;4777893;29;20477;-86
2023/01/31 06:13:33;;;;;;;2.70;1.60;;;;;;;3.19;nan;102463.09;4792322;29;20465;-87
2023/01/31 06:16:01;;;;;;;3.70;2.53;;;;;;;3.16;nan;102474.09;4808034;29;20493;-87
2023/01/31 06:18:32;;;;;;;6.63;3.00;;;;;;;3.09;nan;102475.47;4791548;29;20493;-87
2023/01/31 06:21:02;;;;;;;6.83;3.90;;;;;;;3.09;nan;102483.56;4792973;29;20462;-87
2023/01/31 06:23:33;;;;;;;9.17;4.73;;;;;;;3.02;nan;102482.28;4777513;29;20459;-86
2023/01/31 06:26:00;;;;;;;4.47;2.50;;;;;;;2.96;nan;102486.22;4792673;29;20473;-87
2023/01/31 06:28:29;;;;;;;6.77;3.70;;;;;;;2.96;nan;102494.34;4789182;29;20460;-87
2023/01/31 06:30:57;;;;;;;9.60;5.40;;;;;;;2.93;nan;102493.66;4792340;29;20466;-87
2023/01/31 06:33:28;;;;;;;12.60;5.43;;;;;;;2.93;nan;102490.97;4777738;29;20462;-87
2023/01/31 06:36:11;;;;;;;9.90;5.17;;;;;;;2.93;nan;102493.66;4805953;29;20538;-87
2023/01/31 06:38:39;;;;;;;16.23;5.43;;;;;;;2.95;nan;102494.44;4777606;29;20462;-87
2023/01/31 06:41:07;;;;;;;6.80;3.60;;;;;;;2.93;nan;102497.22;4777656;29;20450;-87
2023/01/31 06:43:36;;;;;;;10.50;4.57;;;;;;;2.91;nan;102496.47;4777412;29;20462;-88
2023/01/31 06:46:05;;;;;;;5.77;3.03;;;;;;;2.93;nan;102497.22;4792477;29;20814;-88
2023/01/31 06:48:38;;;;;;;4.80;3.00;;;;;;;2.93;nan;102499.06;4807802;29;20454;-88
2023/01/31 06:51:05;;;;;;;9.67;3.33;;;;;;;2.80;nan;102492.75;4807390;29;20455;-87
2023/01/31 06:53:35;;;;;;;5.70;3.27;;;;;;;2.73;nan;102487.75;4774625;30;20531;-87
2023/01/31 06:56:03;;;;;;;10.30;4.43;;;;;;;2.82;nan;102512.41;4789349;30;20475;-88
2023/01/31 06:58:32;;;;;;;8.23;4.57;;;;;;;2.80;nan;102509.81;4804437;29;20456;-88
2023/01/31 07:01:05;;;;;;;7.40;3.90;;;;;;;2.81;nan;102530.44;4758558;30;20453;-88
2023/01/31 07:03:33;;;;;;;5.97;3.27;;;;;;;2.78;nan;102519.84;4751306;30;20445;-88
2023/01/31 07:06:12;;;;;;;14.00;4.60;;;;;;;2.82;nan;102525.91;4763081;30;20864;-90
2023/01/31 07:08:40;;;;;;;7.20;3.93;;;;;;;2.75;nan;102523.59;4770167;30;20954;-87
2023/01/31 07:11:10;;;;;;;10.80;5.67;;;;;;;2.75;nan;102523.59;4768475;30;20965;-87
2023/01/31 07:13:39;;;;;;;7.67;4.83;;;;;;;2.70;nan;102514.06;4768162;30;20464;-87
2023/01/31 07:16:15;;;;;;;8.80;4.03;;;;;;;2.74;nan;102524.56;4769194;30;20484;-87
2023/01/31 07:18:43;;;;;;;6.00;3.40;;;;;;;2.72;nan;102522.94;4761797;30;20492;-89
2023/01/31 07:21:12;;;;;;;7.37;3.70;;;;;;;2.68;nan;102533.09;4767482;30;21011;-88
2023/01/31 07:23:41;;;;;;;21.43;10.47;;;;;;;2.65;nan;102517.09;4777046;30;20834;-87
2023/01/31 07:26:10;;;;;;;21.77;9.03;;;;;;;2.66;nan;102521.53;4782589;30;20531;-87
2023/01/31 07:28:39;;;;;;;14.87;5.37;;;;;;;2.65;nan;102533.28;4771108;29;20458;-87
2023/01/31 07:31:11;;;;;;;18.63;8.63;;;;;;;2.61;nan;102520.06;4777145;29;20475;-87
2023/01/31 07:33:41;;;;;;;13.07;6.40;;;;;;;2.61;nan;102526.34;4776904;29;20454;-87
2023/01/31 07:36:12;;;;;;;10.17;5.13;;;;;;;2.62;nan;102535.31;4791551;29;20474;-87
2023/01/31 07:39:02;;;;;;;4.53;3.20;;;;;;;2.63;nan;102535.22;4791568;29;20459;-91
2023/01/31 07:45:18;;;;;;;9.30;3.27;;;;;;;2.53;nan;102533.19;4806241;29;21244;-92
2023/01/31 07:52:00;;;;;;;7.77;3.20;;;;;;;2.66;nan;102555.75;4789945;30;20502;-89
2023/01/31 07:54:52;;;;;;;23.17;3.77;;;;;;;2.66;nan;102553.91;4803808;29;20463;-89
2023/01/31 07:57:22;;;;;;;19.43;10.37;;;;;;;2.66;nan;102559.31;4806554;29;20496;-89
2023/01/31 08:03:40;;;;;;;17.73;3.10;;;;;;;2.66;nan;102567.41;4807893;29;20437;-89
2023/01/31 08:06:21;;;;;;;11.27;2.80;;;;;;;2.65;nan;102554.88;4791946;29;20458;-88
2023/01/31 08:08:49;;;;;;;17.70;4.50;;;;;;;2.65;nan;102559.41;4791552;29;20458;-90
2023/01/31 08:11:24;;;;;;;17.07;4.80;;;;;;;2.70;nan;102574.31;4785320;29;20508;-90
2023/01/31 08:14:02;;;;;;;14.47;7.53;;;;;;;2.69;nan;102571.75;4805283;29;20827;-90
2023/01/31 08:16:38;;;;;;;33.43;8.53;;;;;;;2.73;nan;102568.72;4791631;29;20486;-90
2023/01/31 08:19:58;;;;;;;36.10;8.30;;;;;;;2.84;nan;102580.69;4773669;30;20470;-90
2023/01/31 08:22:30;;;;;;;16.33;8.10;;;;;;;2.79;nan;102570.19;4788967;30;20455;-90
2023/01/31 08:28:38;;;;;;;24.43;7.43;;;;;;;3.03;nan;102584.81;4789297;30;21034;-92
2023/01/31 08:31:29;;;;;;;28.00;10.97;;;;;;;3.16;nan;102598.34;4764023;29;20834;-93
2023/01/31 08:34:27;;;;;;;21.80;7.30;;;;;;;3.25;nan;102594.19;4789665;29;20549;-93
2023/01/31 08:37:13;;;;;;;12.60;4.00;;;;;;;3.23;nan;102588.91;4792864;29;20501;-93
2023/01/31 09:03:27;;;;;;;26.97;9.43;;;;;;;5.24;nan;102618.03;4811288;29;20410;-92
2023/01/31 09:09:45;;;;;;;27.67;8.83;;;;;;;6.63;nan;102616.38;4791365;30;20450;-90
2023/01/31 09:12:15;;;;;;;25.53;7.90;;;;;;;6.95;nan;102613.78;4791552;29;20833;-91
2023/01/31 09:14:48;;;;;;;20.60;3.40;;;;;;;7.30;nan;102627.25;4762463;30;20466;-91
2023/01/31 09:17:17;;;;;;;26.97;6.30;;;;;;;7.54;nan;102614.31;4808423;29;20556;-89
2023/01/31 09:19:53;;;;;;;9.40;3.30;;;;;;;7.79;nan;102624.00;4779802;29;20462;-90
2023/01/31 09:22:21;;;;;;;13.30;4.13;;;;;;;8.00;nan;102615.00;4794976;29;20468;-90
2023/01/31 09:25:01;;;;;;;32.77;10.53;;;;;;;8.29;nan;102622.38;4794146;29;20468;-90
2023/01/31 09:27:41;;;;;;;17.77;4.60;;;;;;;8.50;nan;102616.97;4794154;29;20530;-90
2023/01/31 09:30:13;;;;;;;19.47;6.13;;;;;;;8.65;nan;102606.59;4796909;29;20454;-89
2023/01/31 09:32:48;;;;;;;7.10;2.30;;;;;;;8.87;nan;102617.28;4810442;29;20478;-92
2023/01/31 09:35:30;;;;;;;6.70;2.07;;;;;;;8.99;nan;102616.22;4802937;29;20457;-91
2023/01/31 09:41:25;;;;;;;6.00;2.43;;;;;;;9.47;nan;102612.75;4810676;29;20449;-88
2023/01/31 09:43:57;;;;;;;8.90;1.97;;;;;;;9.60;nan;102609.78;4792921;29;20466;-89
2023/01/31 09:46:30;;;;;;;7.70;2.17;;;;;;;9.73;nan;102604.03;4794006;29;20473;-89
2023/01/31 09:49:09;;;;;;;4.63;1.73;;;;;;;9.91;nan;102610.50;4804494;29;20511;-89
2023/01/31 09:51:43;;;;;;;4.20;1.30;;;;;;;10.10;nan;102626.88;4793798;29;20510;-89
2023/01/31 09:58:36;;;;;;;7.23;2.27;;;;;;;10.39;nan;102618.69;4808480;29;20542;-89
2023/01/31 10:04:58;;;;;;;7.40;2.87;;;;;;;10.53;nan;102620.09;4810386;29;20446;-89
2023/01/31 10:11:49;;;;;;;3.63;1.67;;;;;;;10.73;nan;102635.44;4810223;29;20433;-88
2023/01/31 10:14:24;;;;;;;5.90;2.30;;;;;;;10.87;nan;102632.22;4805936;29;20462;-89
2023/01/31 10:17:38;;;;;;;4.03;1.73;;;;;;;10.87;nan;102618.56;4813062;29;20482;-90
2023/01/31 10:20:20;;;;;;;4.70;2.10;;;;;;;11.11;nan;102637.19;4822008;29;20479;-88
2023/01/31 10:23:15;;;;;;;7.43;2.10;;;;;;;11.20;nan;102629.91;4816061;29;20519;-89
2023/01/31 10:25:59;;;;;;;3.53;1.63;;;;;;;11.34;nan;102637.66;4818633;29;20470;-89
2023/01/31 10:29:11;;;;;;;4.30;1.70;;;;;;;11.43;nan;102648.53;4816290;29;20532;-90
2023/01/31 10:31:45;;;;;;;4.03;1.50;;;;;;;11.58;nan;102640.66;4845458;29;20448;-89
2023/01/31 10:34:52;;;;;;;4.47;2.03;;;;;;;11.73;nan;102641.88;4817155;29;20457;-89
2023/01/31 10:37:48;;;;;;;4.10;1.67;;;;;;;11.81;nan;102648.47;4774342;30;20492;-90
2023/01/31 10:40:17;;;;;;;6.60;1.50;;;;;;;11.91;nan;102654.75;4742434;30;20905;-90
2023/01/31 10:42:52;;;;;;;6.67;1.90;;;;;;;11.88;nan;102647.69;4739814;30;20465;-89
2023/01/31 10:45:22;;;;;;;4.70;1.47;;;;;;;12.01;nan;102663.75;4725687;30;20531;-89
2023/01/31 10:47:54;;;;;;;3.87;1.37;;;;;;;12.07;nan;102664.00;4724704;30;20568;-89
2023/01/31 10:50:53;;;;;;;3.50;1.80;;;;;;;12.12;nan;102649.81;4739676;30;20472;-89
2023/01/31 10:53:48;;;;;;;6.17;1.60;;;;;;;12.29;nan;102657.16;4738556;30;20507;-89
2023/01/31 10:56:18;;;;;;;4.50;1.90;;;;;;;12.41;nan;102660.50;4684366;30;20472;-90
2023/01/31 10:58:48;;;;;;;3.43;1.90;;;;;;;12.55;nan;102648.09;4685754;30;20473;-90
2023/01/31 11:01:16;;;;;;;3.17;1.80;;;;;;;12.76;nan;102654.09;4669911;30;20485;-91
2023/01/31 11:04:20;;;;;;;4.07;1.87;;;;;;;12.89;nan;102645.44;4671603;30;20468;-90
2023/01/31 11:06:49;;;;;;;5.77;2.37;;;;;;;12.96;nan;102632.75;4665710;30;20475;-90
2023/01/31 11:09:17;;;;;;;5.83;1.83;;;;;;;13.05;nan;102646.38;4676276;30;21012;-90
2023/01/31 11:11:57;;;;;;;8.73;1.80;;;;;;;13.21;nan;102637.41;4698278;30;20462;-89
2023/01/31 11:14:28;;;;;;;5.10;2.37;;;;;;;13.24;nan;102630.72;4711687;30;20475;-90
2023/01/31 11:16:58;;;;;;;7.37;2.30;;;;;;;13.33;nan;102638.81;4716185;30;20558;-89
2023/01/31 11:19:57;;;;;;;3.37;1.70;;;;;;;13.44;nan;102643.16;4713506;30;20580;-88
2023/01/31 11:22:30;;;;;;;9.00;1.70;;;;;;;13.56;nan;102640.97;4737593;30;20468;-88
2023/01/31 11:24:58;;;;;;;10.90;2.03;;;;;;;13.64;nan;102635.50;4709090;30;20619;-88
2023/01/31 11:27:31;;;;;;;4.27;1.40;;;;;;;13.68;nan;102631.38;4723761;30;20461;-88
2023/01/31 11:30:01;;;;;;;4.57;1.70;;;;;;;13.74;nan;102625.19;4723932;30;20465;-87
2023/01/31 11:32:30;;;;;;;5.30;2.00;;;;;;;13.85;nan;102635.03;4681576;30;20454;-87
2023/01/31 11:35:03;;;;;;;1.80;0.97;;;;;;;13.86;nan;102626.59;4705422;30;20472;-88
2023/01/31 11:37:32;;;;;;;3.30;1.30;;;;;;;14.05;nan;102625.41;4705955;30;20489;-87
2023/01/31 11:40:18;;;;;;;4.73;1.53;;;;;;;14.18;nan;102612.88;4705524;30;20458;-88
2023/01/31 11:42:53;;;;;;;4.57;1.90;;;;;;;14.39;nan;102623.38;4719789;30;20469;-87
2023/01/31 11:45:22;;;;;;;20.93;2.17;;;;;;;14.52;nan;102626.47;4719562;30;20453;-87
2023/01/31 11:47:52;;;;;;;5.60;1.57;;;;;;;14.54;nan;102614.44;4705205;30;20454;-87
2023/01/31 11:50:52;;;;;;;2.87;1.60;;;;;;;14.61;nan;102618.22;4719692;30;20966;-87
2023/01/31 11:53:48;;;;;;;4.13;1.50;;;;;;;14.70;nan;102606.16;4717928;30;20462;-87
2023/01/31 11:56:19;;;;;;;11.00;2.10;;;;;;;14.67;nan;102598.25;4717354;29;20462;-86
2023/01/31 11:58:48;;;;;;;7.63;1.63;;;;;;;14.69;nan;102579.66;4791207;29;20922;-87
2023/01/31 12:01:21;;;;;;;6.60;2.50;;;;;;;14.85;nan;102590.63;4806087;29;20957;-87
2023/01/31 12:04:00;;;;;;;5.27;1.87;;;;;;;14.97;nan;102583.72;4791396;29;20474;-87
2023/01/31 12:06:34;;;;;;;4.87;2.03;;;;;;;15.12;nan;102587.44;4776739;29;20598;-86
2023/01/31 12:09:20;;;;;;;6.00;1.80;;;;;;;15.23;nan;102580.66;4791259;29;20474;-87
2023/01/31 12:12:21;;;;;;;3.73;1.70;;;;;;;15.27;nan;102568.25;4807893;29;20446;-88
2023/01/31 12:14:49;;;;;;;9.13;1.93;;;;;;;15.38;nan;102569.75;4804066;29;20825;-87
2023/01/31 12:17:19;;;;;;;3.77;1.97;;;;;;;15.42;nan;102560.94;4789984;29;20981;-88
2023/01/31 12:20:05;;;;;;;8.53;2.70;;;;;;;15.53;nan;102562.44;4776214;29;20470;-88
2023/01/31 12:23:10;;;;;;;9.30;2.37;;;;;;;15.62;nan;102560.50;4794678;29;20474;-87
2023/01/31 12:26:09;;;;;;;4.47;2.03;;;;;;;15.72;nan;102556.47;4776223;29;20478;-87
2023/01/31 12:28:42;;;;;;;6.50;2.07;;;;;;;15.83;nan;102553.28;4795294;29;20841;-88
2023/01/31 12:31:36;;;;;;;7.70;2.20;;;;;;;15.91;nan;102546.84;4820634;29;20458;-87
2023/01/31 12:34:17;;;;;;;12.17;3.17;;;;;;;16.10;nan;102534.44;4804813;29;20450;-88
2023/01/31 12:37:01;;;;;;;5.80;2.30;;;;;;;16.24;nan;102531.72;4805423;29;20984;-87
2023/01/31 12:39:48;;;;;;;8.80;2.13;;;;;;;16.37;nan;102528.28;4805149;29;20473;-87
2023/01/31 12:42:33;;;;;;;5.10;2.10;;;;;;;16.38;nan;102524.50;4806405;29;20459;-88
2023/01/31 12:45:08;;;;;;;5.93;2.10;;;;;;;16.32;nan;102516.13;4820547;29;20466;-88
2023/01/31 12:48:22;;;;;;;6.10;2.90;;;;;;;16.47;nan;102517.00;4797811;29;20457;-86
2023/01/31 12:50:50;;;;;;;8.17;2.53;;;;;;;16.56;nan;102502.91;4829688;29;20511;-86
2023/01/31 12:54:03;;;;;;;6.17;2.90;;;;;;;16.66;nan;102499.03;4844116;29;20454;-87
2023/01/31 12:56:54;;;;;;;19.90;5.73;;;;;;;16.80;nan;102492.66;4844694;29;20446;-87
2023/01/31 13:00:02;;;;;;;15.90;6.20;;;;;;;16.93;nan;102490.06;4814145;29;20448;-87
2023/01/31 13:02:54;;;;;;;9.13;3.83;;;;;;;16.93;nan;102474.31;4828068;29;20458;-85
2023/01/31 13:05:33;;;;;;;9.00;4.67;;;;;;;17.06;nan;102487.47;4810873;29;20483;-88
2023/01/31 13:08:01;;;;;;;13.93;6.23;;;;;;;17.05;nan;102485.75;4796822;30;20496;-86
2023/01/31 13:10:32;;;;;;;18.40;6.50;;;;;;;17.04;nan;102485.94;4826541;29;20471;-87
2023/01/31 13:13:01;;;;;;;15.63;5.43;;;;;;;17.04;nan;102470.22;4811494;29;20451;-86
2023/01/31 13:15:38;;;;;;;8.00;3.13;;;;;;;17.20;nan;102469.13;4796605;30;20552;-87
2023/01/31 13:18:06;;;;;;;7.27;3.00;;;;;;;17.18;nan;102466.56;4820602;29;20503;-87
2023/01/31 13:20:45;;;;;;;14.33;3.00;;;;;;;17.19;nan;102462.75;4795986;30;20470;-87
2023/01/31 13:23:19;;;;;;;6.37;3.40;;;;;;;17.20;nan;102467.22;4810818;29;20471;-88